Mildland, Texas
Current Conditions -  °F | °C
As of 12:56 AM on Thursday 23 Oct 2014 (Local Time) from KAQV Reporting Station
Clear Clear  
Wind Chill: 59°   Ceiling: Unl
Heat Index: 59°   Visibility: 10mi
Dew Point: 50°   Wind: 5mph
Humidity: 72%   Direction: 40°NE
Pressure: 30.1"   Gusts: NA
Location:  31.4918°N, 93.8786°W
Report Text: KAQV 230556Z AUTO 04004KT 10SM CLR 15/10 A3010 RMK AO2 SLP192 T01500100 10178 20150 402670139 58005
Loading
Personal Weather Stations






























Interactive Weather Map
Tropical Storm Tracking
New forecast layout! Learn more

10-Day Weather Forecast

Advertisements
Track Severe Weather on mobile